Time;durP1;ratioP1;P1;durP2;ratioP2;P2;SDS_P1;SDS_P2;PMS_P1;PMS_P2;Temp;Humidity;BMP_temperature;BMP_pressure;BME280_temperature;BME280_humidity;BME280_pressure;Samples;Min_cycle;Max_cycle;Signal;HPM_P1;HPM_P2
2022/07/10 00:02:12;;;;;;;6.40;5.90;;;;;;;;;;5050605;28;20522;-75
2022/07/10 00:04:41;;;;;;;7.00;6.43;;;;;;;;;;5050271;28;20933;-76
2022/07/10 00:07:08;;;;;;;6.70;4.70;;;;;;;;;;5050385;28;20961;-76
2022/07/10 00:09:35;;;;;;;5.57;5.17;;;;;;;;;;5039334;28;20493;-77
2022/07/10 00:12:02;;;;;;;6.00;5.60;;;;;;;;;;5030482;28;20458;-76
2022/07/10 00:14:29;;;;;;;5.67;5.13;;;;;;;;;;5029904;28;20864;-76
2022/07/10 00:16:56;;;;;;;5.43;5.13;;;;;;;;;;5030642;28;20442;-76
2022/07/10 00:19:23;;;;;;;5.50;5.13;;;;;;;;;;5030885;28;20767;-76
2022/07/10 00:21:51;;;;;;;5.90;5.47;;;;;;;;;;5030632;28;20496;-75
2022/07/10 00:24:18;;;;;;;6.37;5.77;;;;;;;;;;5030180;28;20450;-78
2022/07/10 00:26:47;;;;;;;5.80;5.50;;;;;;;;;;5030110;28;20500;-76
2022/07/10 00:29:14;;;;;;;5.50;5.10;;;;;;;;;;5029901;28;20485;-75
2022/07/10 00:31:41;;;;;;;5.60;5.20;;;;;;;;;;5030294;28;20767;-76
2022/07/10 00:34:08;;;;;;;5.93;5.53;;;;;;;;;;5029742;28;20882;-77
2022/07/10 00:36:35;;;;;;;5.67;5.23;;;;;;;;;;5030190;28;20775;-77
2022/07/10 00:39:04;;;;;;;5.80;5.40;;;;;;;;;;5030951;28;20442;-75
2022/07/10 00:41:31;;;;;;;5.93;5.43;;;;;;;;;;5030793;28;20438;-76
2022/07/10 00:43:58;;;;;;;6.07;5.67;;;;;;;;;;5030446;28;20802;-76
2022/07/10 00:46:26;;;;;;;6.77;6.20;;;;;;;;;;5034324;28;20450;-77
2022/07/10 00:48:53;;;;;;;6.10;5.70;;;;;;;;;;5034814;28;20489;-77
2022/07/10 00:51:21;;;;;;;5.67;5.37;;;;;;;;;;5034771;28;20438;-77
2022/07/10 00:53:49;;;;;;;5.67;5.17;;;;;;;;;;5034646;28;20446;-77
2022/07/10 00:56:19;;;;;;;5.70;5.40;;;;;;;;;;5034908;28;20454;-76
2022/07/10 00:58:46;;;;;;;6.13;5.73;;;;;;;;;;5034542;28;20446;-76
2022/07/10 01:01:14;;;;;;;5.87;5.47;;;;;;;;;;5034096;28;20442;-76
2022/07/10 01:03:41;;;;;;;5.97;5.57;;;;;;;;;;5033593;28;20478;-74
2022/07/10 01:06:08;;;;;;;5.87;5.47;;;;;;;;;;5034096;28;20446;-75
2022/07/10 01:08:35;;;;;;;6.83;5.60;;;;;;;;;;5036549;28;20929;-75
2022/07/10 01:11:03;;;;;;;5.77;5.37;;;;;;;;;;5053723;28;20862;-76
2022/07/10 01:13:31;;;;;;;6.00;5.60;;;;;;;;;;5054076;28;20487;-75
2022/07/10 01:15:59;;;;;;;6.50;6.10;;;;;;;;;;5053899;28;20495;-76
2022/07/10 01:18:26;;;;;;;6.23;5.77;;;;;;;;;;5054491;28;20449;-75
2022/07/10 01:20:55;;;;;;;6.33;5.93;;;;;;;;;;5053743;28;20789;-76
2022/07/10 01:23:22;;;;;;;5.90;5.50;;;;;;;;;;5053890;28;20916;-75
2022/07/10 01:25:49;;;;;;;5.90;5.40;;;;;;;;;;5054822;28;20537;-76
2022/07/10 01:28:17;;;;;;;6.80;6.10;;;;;;;;;;5054129;28;20437;-75
2022/07/10 01:30:44;;;;;;;6.87;6.37;;;;;;;;;;5053303;28;20558;-77
2022/07/10 01:33:11;;;;;;;6.10;5.50;;;;;;;;;;5052780;28;20469;-75
2022/07/10 01:35:38;;;;;;;6.03;5.63;;;;;;;;;;5053108;28;20471;-75
2022/07/10 01:38:07;;;;;;;7.13;6.63;;;;;;;;;;5053473;28;20833;-76
2022/07/10 01:40:34;;;;;;;6.70;6.20;;;;;;;;;;5053456;28;20529;-75
2022/07/10 01:43:01;;;;;;;6.83;6.43;;;;;;;;;;5052829;28;20872;-76
2022/07/10 01:45:28;;;;;;;7.37;6.87;;;;;;;;;;5052874;28;20486;-75
2022/07/10 01:47:56;;;;;;;6.90;6.40;;;;;;;;;;5053458;28;20445;-76
2022/07/10 01:50:23;;;;;;;7.30;6.80;;;;;;;;;;5052550;28;21003;-77
2022/07/10 01:52:51;;;;;;;6.97;6.57;;;;;;;;;;5052499;28;20469;-76
2022/07/10 01:55:19;;;;;;;7.53;7.03;;;;;;;;;;5053213;28;20510;-76
2022/07/10 01:57:46;;;;;;;7.90;7.30;;;;;;;;;;5052943;28;21051;-76
2022/07/10 02:00:14;;;;;;;8.13;7.50;;;;;;;;;;5053041;28;20442;-76
2022/07/10 02:02:41;;;;;;;8.03;7.40;;;;;;;;;;5052484;28;20491;-75
2022/07/10 02:05:07;;;;;;;8.00;7.27;;;;;;;;;;5052625;28;20444;-76
2022/07/10 02:07:34;;;;;;;9.07;8.47;;;;;;;;;;5052526;28;20500;-77
2022/07/10 02:10:01;;;;;;;8.50;7.90;;;;;;;;;;5041139;28;20485;-75
2022/07/10 02:12:29;;;;;;;9.10;8.30;;;;;;;;;;5040532;28;20462;-76
2022/07/10 02:14:59;;;;;;;8.70;8.00;;;;;;;;;;5043284;28;20454;-74
2022/07/10 02:17:26;;;;;;;9.23;8.53;;;;;;;;;;5039681;28;20446;-75
2022/07/10 02:19:53;;;;;;;9.20;8.50;;;;;;;;;;5033311;28;20443;-76
2022/07/10 02:22:20;;;;;;;10.87;9.80;;;;;;;;;;5032665;28;20479;-75
2022/07/10 02:24:47;;;;;;;11.50;10.50;;;;;;;;;;5032406;28;20443;-75
2022/07/10 02:27:14;;;;;;;13.73;12.63;;;;;;;;;;5032548;28;20450;-76
2022/07/10 02:29:42;;;;;;;12.77;11.80;;;;;;;;;;5032025;28;20467;-75
2022/07/10 02:32:09;;;;;;;15.90;14.23;;;;;;;;;;5032129;28;20575;-76
2022/07/10 02:34:36;;;;;;;16.53;15.23;;;;;;;;;;5032127;28;20442;-75
2022/07/10 02:37:03;;;;;;;15.90;14.60;;;;;;;;;;5031976;28;20942;-76
2022/07/10 02:39:31;;;;;;;15.67;14.33;;;;;;;;;;5032153;28;20493;-76
2022/07/10 02:41:58;;;;;;;17.50;16.10;;;;;;;;;;5032291;28;20930;-76
2022/07/10 02:44:25;;;;;;;15.80;14.60;;;;;;;;;;5031312;28;20516;-75
2022/07/10 02:46:53;;;;;;;15.77;14.47;;;;;;;;;;5032003;28;20446;-76
2022/07/10 02:49:20;;;;;;;15.40;14.20;;;;;;;;;;5031832;28;20508;-76
2022/07/10 02:51:47;;;;;;;17.03;15.60;;;;;;;;;;5031734;28;20541;-76
2022/07/10 02:54:14;;;;;;;18.00;16.50;;;;;;;;;;5031541;28;20446;-77
2022/07/10 02:56:41;;;;;;;18.27;16.77;;;;;;;;;;5031383;28;20508;-76
2022/07/10 02:59:08;;;;;;;16.97;15.40;;;;;;;;;;5031395;28;20451;-76
2022/07/10 03:01:35;;;;;;;16.97;15.57;;;;;;;;;;5031798;28;20525;-75
2022/07/10 03:04:03;;;;;;;17.73;16.13;;;;;;;;;;5031263;28;20473;-75
2022/07/10 03:06:30;;;;;;;17.40;16.00;;;;;;;;;;5031545;28;20870;-75
2022/07/10 03:08:57;;;;;;;16.70;15.40;;;;;;;;;;5036514;28;20487;-75
2022/07/10 03:11:24;;;;;;;15.20;14.00;;;;;;;;;;5051244;28;20484;-76
2022/07/10 03:13:51;;;;;;;16.30;15.00;;;;;;;;;;5050670;28;20937;-75
2022/07/10 03:16:18;;;;;;;16.30;14.80;;;;;;;;;;5051782;28;20446;-76
2022/07/10 03:18:46;;;;;;;15.73;14.53;;;;;;;;;;5051284;28;20965;-76
2022/07/10 03:21:14;;;;;;;17.50;15.80;;;;;;;;;;5051117;28;20444;-77
2022/07/10 03:23:41;;;;;;;15.80;14.50;;;;;;;;;;5050676;28;20973;-75
2022/07/10 03:26:08;;;;;;;16.53;15.23;;;;;;;;;;5050664;28;20434;-75
2022/07/10 03:28:35;;;;;;;16.03;14.73;;;;;;;;;;5051048;28;20537;-76
2022/07/10 03:31:03;;;;;;;17.80;16.27;;;;;;;;;;5051109;28;20535;-76
2022/07/10 03:33:30;;;;;;;15.80;14.47;;;;;;;;;;5050764;28;20474;-75
2022/07/10 03:35:57;;;;;;;15.93;14.63;;;;;;;;;;5050849;28;20438;-75
2022/07/10 03:38:25;;;;;;;15.20;14.10;;;;;;;;;;5050781;28;20800;-76
2022/07/10 03:40:52;;;;;;;15.60;14.30;;;;;;;;;;5050764;28;20496;-76
2022/07/10 03:43:19;;;;;;;15.10;13.80;;;;;;;;;;5050333;28;20878;-76
2022/07/10 03:45:46;;;;;;;15.77;14.50;;;;;;;;;;5050710;28;20552;-76
2022/07/10 03:48:13;;;;;;;15.30;14.10;;;;;;;;;;5050709;28;20483;-75
2022/07/10 03:50:40;;;;;;;14.53;13.43;;;;;;;;;;5050582;28;20478;-75
2022/07/10 03:53:07;;;;;;;15.50;14.20;;;;;;;;;;5050013;28;20536;-76
2022/07/10 03:55:36;;;;;;;15.60;14.27;;;;;;;;;;5050591;28;20445;-77
2022/07/10 03:58:02;;;;;;;15.10;13.70;;;;;;;;;;5050501;28;20499;-75
2022/07/10 04:00:31;;;;;;;15.33;14.13;;;;;;;;;;5050514;28;20537;-76
2022/07/10 04:02:59;;;;;;;14.50;13.30;;;;;;;;;;5049773;28;20473;-76
2022/07/10 04:05:26;;;;;;;14.63;13.53;;;;;;;;;;5050233;28;20996;-76
2022/07/10 04:07:53;;;;;;;15.40;14.10;;;;;;;;;;5050304;28;20930;-76
2022/07/10 04:10:20;;;;;;;14.27;12.97;;;;;;;;;;5033656;28;20482;-76
2022/07/10 04:12:49;;;;;;;14.57;13.27;;;;;;;;;;5030700;28;20470;-75
2022/07/10 04:15:16;;;;;;;15.20;13.90;;;;;;;;;;5031158;28;20450;-76
2022/07/10 04:17:43;;;;;;;13.07;12.07;;;;;;;;;;5031326;28;20553;-76
2022/07/10 04:20:10;;;;;;;14.87;13.60;;;;;;;;;;5030144;28;20443;-75
2022/07/10 04:22:38;;;;;;;15.47;14.07;;;;;;;;;;5031205;28;20520;-75
2022/07/10 04:25:06;;;;;;;16.07;14.57;;;;;;;;;;5031032;28;21014;-77
2022/07/10 04:27:33;;;;;;;15.70;14.33;;;;;;;;;;5031186;28;20529;-75
2022/07/10 04:30:01;;;;;;;14.33;13.13;;;;;;;;;;5031011;28;20497;-75
2022/07/10 04:32:28;;;;;;;13.90;12.77;;;;;;;;;;5030574;28;20844;-77
2022/07/10 04:34:55;;;;;;;15.27;14.03;;;;;;;;;;5030251;28;20735;-76
2022/07/10 04:37:22;;;;;;;14.90;13.50;;;;;;;;;;5030333;28;20843;-76
2022/07/10 04:39:49;;;;;;;13.67;12.40;;;;;;;;;;5031060;28;20504;-75
2022/07/10 04:42:16;;;;;;;13.23;12.20;;;;;;;;;;5031342;28;20914;-75
2022/07/10 04:44:43;;;;;;;13.30;12.30;;;;;;;;;;5031350;28;20438;-75
2022/07/10 04:47:12;;;;;;;14.37;13.07;;;;;;;;;;5031539;28;20852;-77
2022/07/10 04:49:39;;;;;;;13.40;12.13;;;;;;;;;;5030063;28;20449;-76
2022/07/10 04:52:06;;;;;;;12.37;11.13;;;;;;;;;;5029834;28;20486;-77
2022/07/10 04:54:33;;;;;;;14.20;12.40;;;;;;;;;;5029664;28;20492;-76
2022/07/10 04:57:01;;;;;;;12.70;11.70;;;;;;;;;;5029843;28;20492;-76
2022/07/10 04:59:28;;;;;;;12.37;11.20;;;;;;;;;;5029830;28;20516;-76
2022/07/10 05:01:55;;;;;;;13.43;12.33;;;;;;;;;;5029662;28;20806;-76
2022/07/10 05:04:23;;;;;;;11.00;10.20;;;;;;;;;;5029763;28;20533;-76
2022/07/10 05:06:50;;;;;;;10.70;9.70;;;;;;;;;;5029932;28;20445;-75
2022/07/10 05:09:19;;;;;;;10.60;9.57;;;;;;;;;;5038853;28;20934;-76
2022/07/10 05:11:46;;;;;;;10.43;9.53;;;;;;;;;;5049693;28;20598;-74
2022/07/10 05:14:13;;;;;;;10.53;9.23;;;;;;;;;;5049669;28;20805;-77
2022/07/10 05:16:40;;;;;;;8.77;7.97;;;;;;;;;;5049824;28;20854;-76
2022/07/10 05:19:07;;;;;;;7.97;7.37;;;;;;;;;;5049812;28;20455;-75
2022/07/10 05:21:36;;;;;;;8.53;7.73;;;;;;;;;;5049719;28;20816;-75
2022/07/10 05:24:03;;;;;;;8.57;7.77;;;;;;;;;;5049816;28;20445;-75
2022/07/10 05:26:30;;;;;;;8.03;7.23;;;;;;;;;;5049762;28;20441;-75
2022/07/10 05:28:57;;;;;;;6.97;6.47;;;;;;;;;;5049813;28;20457;-75
2022/07/10 05:31:24;;;;;;;7.03;6.50;;;;;;;;;;5051994;28;20493;-74
2022/07/10 05:33:51;;;;;;;6.53;5.93;;;;;;;;;;5053026;28;20859;-76
2022/07/10 05:36:18;;;;;;;6.23;5.60;;;;;;;;;;5053179;28;20449;-75
2022/07/10 05:38:46;;;;;;;6.40;5.80;;;;;;;;;;5053138;28;20873;-76
2022/07/10 05:41:13;;;;;;;6.33;5.70;;;;;;;;;;5053358;28;20438;-76
2022/07/10 05:43:40;;;;;;;6.27;5.77;;;;;;;;;;5052634;28;20469;-76
2022/07/10 05:46:07;;;;;;;5.40;5.00;;;;;;;;;;5053100;28;21020;-77
2022/07/10 05:48:34;;;;;;;5.67;5.27;;;;;;;;;;5053408;28;20449;-76
2022/07/10 05:51:01;;;;;;;5.77;4.43;;;;;;;;;;5053062;28;20481;-75
2022/07/10 05:53:28;;;;;;;4.70;4.30;;;;;;;;;;5053068;28;20461;-75
2022/07/10 05:56:00;;;;;;;6.70;4.00;;;;;;;;;;5053285;28;20495;-76
2022/07/10 05:58:27;;;;;;;4.23;3.93;;;;;;;;;;5053148;28;20450;-76
2022/07/10 06:00:54;;;;;;;5.20;4.60;;;;;;;;;;5055061;28;20855;-75
2022/07/10 06:03:22;;;;;;;4.87;4.40;;;;;;;;;;5062762;28;20507;-74
2022/07/10 06:05:49;;;;;;;4.90;4.40;;;;;;;;;;5047746;28;20989;-75
2022/07/10 06:08:16;;;;;;;4.33;4.00;;;;;;;;;;5052654;28;20450;-75
2022/07/10 06:10:44;;;;;;;4.83;4.43;;;;;;;;;;5052240;28;20994;-76
2022/07/10 06:13:12;;;;;;;5.60;4.77;;;;;;;;;;5052150;28;20542;-76
2022/07/10 06:15:39;;;;;;;4.10;3.70;;;;;;;;;;5054417;28;20701;-77
2022/07/10 06:18:07;;;;;;;4.53;4.13;;;;;;;;;;5052679;28;20449;-76
2022/07/10 06:20:34;;;;;;;5.10;4.53;;;;;;;;;;5053024;28;20503;-77
2022/07/10 06:23:01;;;;;;;4.43;4.03;;;;;;;;;;5052086;28;20465;-77
2022/07/10 06:25:28;;;;;;;4.50;3.90;;;;;;;;;;5052128;28;20511;-76
2022/07/10 06:27:55;;;;;;;4.10;3.80;;;;;;;;;;5052887;28;20445;-76
2022/07/10 06:30:23;;;;;;;4.93;3.50;;;;;;;;;;5052536;28;20445;-77
2022/07/10 06:32:50;;;;;;;6.83;4.00;;;;;;;;;;5052110;28;20493;-75
2022/07/10 06:35:17;;;;;;;6.67;3.93;;;;;;;;;;5047182;28;20454;-75
2022/07/10 06:37:44;;;;;;;5.23;4.13;;;;;;;;;;5051840;28;20438;-75
2022/07/10 06:40:13;;;;;;;4.53;4.10;;;;;;;;;;5038602;28;20442;-76
2022/07/10 06:42:40;;;;;;;4.60;3.90;;;;;;;;;;5031089;28;20473;-75
2022/07/10 06:45:08;;;;;;;4.73;3.70;;;;;;;;;;5032300;28;20446;-75
2022/07/10 06:50:22;;;;;;;5.70;3.17;;;;;;;;;;5049477;28;20500;-76
2022/07/10 06:52:49;;;;;;;5.83;3.93;;;;;;;;;;5048901;28;20552;-75
2022/07/10 06:55:16;;;;;;;5.13;3.33;;;;;;;;;;5032358;28;20449;-76
2022/07/10 06:57:43;;;;;;;3.53;3.23;;;;;;;;;;5032346;28;20462;-76
2022/07/10 07:00:11;;;;;;;4.53;3.37;;;;;;;;;;5032264;28;20511;-76
2022/07/10 07:02:40;;;;;;;5.03;3.30;;;;;;;;;;5031491;28;21051;-76
2022/07/10 07:05:07;;;;;;;3.93;3.40;;;;;;;;;;5032769;28;20477;-76
2022/07/10 07:07:35;;;;;;;4.10;3.80;;;;;;;;;;5032089;28;20549;-76
2022/07/10 07:10:02;;;;;;;5.23;3.10;;;;;;;;;;5061319;28;20425;-75
2022/07/10 07:12:29;;;;;;;3.80;3.50;;;;;;;;;;5073815;28;20488;-74
2022/07/10 07:14:56;;;;;;;4.40;4.00;;;;;;;;;;5058484;28;20500;-76
2022/07/10 07:17:25;;;;;;;6.50;3.80;;;;;;;;;;5057246;28;20449;-75
2022/07/10 07:25:23;;;;;;;3.53;3.03;;;;;;;;;;5052832;28;20560;-75
2022/07/10 07:27:50;;;;;;;4.10;3.20;;;;;;;;;;5051310;28;20563;-75
2022/07/10 07:30:17;;;;;;;4.80;3.33;;;;;;;;;;5051952;28;20450;-76
2022/07/10 07:32:45;;;;;;;3.77;3.30;;;;;;;;;;5051776;28;20809;-77
2022/07/10 07:35:15;;;;;;;4.73;3.50;;;;;;;;;;5053141;28;20450;-77
2022/07/10 07:37:42;;;;;;;3.57;3.27;;;;;;;;;;5058399;28;20434;-76
2022/07/10 07:40:10;;;;;;;5.30;2.70;;;;;;;;;;5058729;28;20445;-75
2022/07/10 07:42:38;;;;;;;4.93;3.20;;;;;;;;;;5057962;28;20523;-76
2022/07/10 07:45:06;;;;;;;3.70;3.10;;;;;;;;;;5058347;28;20490;-75
2022/07/10 07:47:33;;;;;;;3.07;2.70;;;;;;;;;;5056370;28;20859;-76
2022/07/10 07:50:03;;;;;;;3.20;2.73;;;;;;;;;;5050995;28;20503;-77
2022/07/10 07:52:33;;;;;;;4.33;2.80;;;;;;;;;;5050381;28;20485;-77
2022/07/10 07:55:00;;;;;;;3.20;2.93;;;;;;;;;;5050562;28;20446;-75
2022/07/10 07:57:28;;;;;;;3.30;2.73;;;;;;;;;;5050806;28;20953;-76
2022/07/10 07:59:55;;;;;;;3.10;2.63;;;;;;;;;;5051079;28;20446;-75
2022/07/10 08:02:22;;;;;;;2.97;2.53;;;;;;;;;;5050985;28;20480;-75
2022/07/10 08:04:49;;;;;;;3.10;2.63;;;;;;;;;;5050571;28;20532;-75
2022/07/10 08:07:16;;;;;;;7.70;3.10;;;;;;;;;;5050464;28;20991;-76
2022/07/10 08:09:45;;;;;;;2.83;2.60;;;;;;;;;;5038333;28;20818;-77
2022/07/10 08:12:12;;;;;;;2.40;2.20;;;;;;;;;;5031093;28;20506;-76
2022/07/10 08:14:39;;;;;;;3.90;2.70;;;;;;;;;;5030750;28;20492;-76
2022/07/10 08:17:06;;;;;;;4.47;2.97;;;;;;;;;;5030690;28;20868;-76
2022/07/10 08:19:33;;;;;;;2.80;2.30;;;;;;;;;;5030568;28;20442;-75
2022/07/10 08:22:00;;;;;;;5.23;2.33;;;;;;;;;;5030376;28;20466;-77
2022/07/10 08:24:27;;;;;;;3.23;2.30;;;;;;;;;;5030211;28;20857;-76
2022/07/10 08:26:56;;;;;;;2.20;2.10;;;;;;;;;;5030574;28;20512;-76
2022/07/10 08:29:23;;;;;;;2.47;2.27;;;;;;;;;;5030524;28;20464;-76
2022/07/10 08:31:50;;;;;;;3.07;2.37;;;;;;;;;;5030611;28;20532;-76
2022/07/10 08:34:17;;;;;;;3.13;2.20;;;;;;;;;;5030809;28;20454;-76
2022/07/10 08:36:44;;;;;;;4.67;2.50;;;;;;;;;;5031284;28;20446;-77
2022/07/10 08:39:12;;;;;;;2.70;2.50;;;;;;;;;;5030568;28;20454;-75
2022/07/10 08:41:40;;;;;;;3.00;2.63;;;;;;;;;;5029976;28;20473;-76
2022/07/10 08:44:08;;;;;;;4.10;2.40;;;;;;;;;;5029780;28;20458;-75
2022/07/10 08:46:36;;;;;;;6.30;2.70;;;;;;;;;;5030342;28;20860;-76
2022/07/10 08:49:07;;;;;;;3.10;2.40;;;;;;;;;;5030355;28;21204;-76
2022/07/10 08:51:37;;;;;;;3.23;2.50;;;;;;;;;;5030466;28;20478;-76
2022/07/10 08:54:05;;;;;;;7.10;2.40;;;;;;;;;;5030189;28;20529;-75
2022/07/10 08:56:32;;;;;;;3.10;2.63;;;;;;;;;;5030057;28;20493;-75
2022/07/10 08:59:00;;;;;;;4.03;2.40;;;;;;;;;;5029949;28;20496;-76
2022/07/10 09:01:29;;;;;;;3.43;2.63;;;;;;;;;;5029713;28;20484;-75
2022/07/10 09:03:56;;;;;;;2.97;2.37;;;;;;;;;;5029991;28;20525;-75
2022/07/10 09:06:23;;;;;;;5.70;2.50;;;;;;;;;;5032054;28;20492;-76
2022/07/10 09:08:59;;;;;;;5.40;2.43;;;;;;;;;;5038429;28;20787;-75
2022/07/10 09:11:28;;;;;;;3.73;2.50;;;;;;;;;;5053508;28;20527;-76
2022/07/10 09:13:56;;;;;;;4.00;2.87;;;;;;;;;;5053513;28;20460;-76
2022/07/10 09:16:24;;;;;;;4.30;2.20;;;;;;;;;;5053813;28;20445;-75
2022/07/10 09:18:52;;;;;;;2.60;1.83;;;;;;;;;;5054134;28;20796;-75
2022/07/10 09:21:19;;;;;;;3.30;2.00;;;;;;;;;;5053837;28;20445;-76
2022/07/10 09:23:47;;;;;;;2.53;2.30;;;;;;;;;;5053306;28;20463;-78
2022/07/10 09:26:14;;;;;;;2.40;2.17;;;;;;;;;;5053610;28;20449;-76
2022/07/10 09:28:41;;;;;;;4.40;2.30;;;;;;;;;;5053261;28;20503;-77
2022/07/10 09:31:08;;;;;;;4.37;1.63;;;;;;;;;;5053878;28;20499;-76
2022/07/10 09:33:36;;;;;;;2.87;2.13;;;;;;;;;;5053053;28;20492;-76
2022/07/10 09:36:06;;;;;;;2.43;2.23;;;;;;;;;;5053414;28;20453;-76
2022/07/10 09:38:48;;;;;;;2.87;1.97;;;;;;;;;;5053210;28;20976;-77
2022/07/10 09:41:16;;;;;;;2.53;1.83;;;;;;;;;;5052913;28;20453;-77
2022/07/10 09:43:46;;;;;;;4.17;2.10;;;;;;;;;;5053140;28;20481;-76
2022/07/10 09:46:13;;;;;;;3.00;1.80;;;;;;;;;;5053121;28;20445;-75
2022/07/10 09:48:40;;;;;;;1.93;1.83;;;;;;;;;;5052938;28;20447;-75
2022/07/10 09:51:10;;;;;;;3.17;2.10;;;;;;;;;;5053000;28;20437;-76
2022/07/10 09:53:39;;;;;;;2.37;1.67;;;;;;;;;;5052597;28;20481;-75
2022/07/10 09:56:07;;;;;;;3.37;1.80;;;;;;;;;;5052825;28;21020;-77
2022/07/10 09:58:36;;;;;;;2.97;1.80;;;;;;;;;;5053263;28;20843;-75
2022/07/10 10:01:04;;;;;;;2.17;1.97;;;;;;;;;;5052862;28;20564;-75
2022/07/10 10:03:34;;;;;;;3.50;2.00;;;;;;;;;;5052831;28;20698;-76
2022/07/10 10:06:03;;;;;;;2.40;2.20;;;;;;;;;;5052731;28;20453;-75
2022/07/10 10:08:33;;;;;;;3.17;1.90;;;;;;;;;;5050739;28;20437;-76
2022/07/10 10:11:01;;;;;;;2.80;2.00;;;;;;;;;;5033448;28;20439;-76
2022/07/10 10:13:30;;;;;;;5.00;3.20;;;;;;;;;;5032870;28;20926;-76
2022/07/10 10:15:57;;;;;;;2.23;1.90;;;;;;;;;;5033111;28;20458;-75
2022/07/10 10:18:25;;;;;;;2.37;2.13;;;;;;;;;;5031611;28;20804;-76
2022/07/10 10:20:53;;;;;;;2.23;1.90;;;;;;;;;;5032815;28;20469;-77
2022/07/10 10:23:21;;;;;;;3.90;2.50;;;;;;;;;;5032688;28;20536;-76
2022/07/10 10:25:49;;;;;;;2.57;2.07;;;;;;;;;;5032753;28;20553;-77
2022/07/10 10:28:17;;;;;;;2.10;1.90;;;;;;;;;;5032990;28;20435;-76
2022/07/10 10:30:45;;;;;;;2.27;2.10;;;;;;;;;;5032678;28;20451;-76
2022/07/10 10:33:36;;;;;;;3.70;2.60;;;;;;;;;;5031952;28;20541;-75
2022/07/10 10:36:04;;;;;;;3.73;1.90;;;;;;;;;;5032718;28;20949;-76
2022/07/10 10:38:57;;;;;;;2.57;2.00;;;;;;;;;;5032165;28;20438;-76
2022/07/10 10:41:26;;;;;;;2.20;1.87;;;;;;;;;;5032008;28;20449;-75
2022/07/10 10:44:09;;;;;;;2.63;1.90;;;;;;;;;;5031919;28;20525;-76
2022/07/10 10:46:37;;;;;;;3.13;2.17;;;;;;;;;;5032758;28;20942;-75
2022/07/10 10:49:06;;;;;;;4.33;2.00;;;;;;;;;;5032250;28;20446;-78
2022/07/10 10:51:48;;;;;;;3.70;2.23;;;;;;;;;;5032220;28;20794;-77
2022/07/10 10:54:15;;;;;;;2.20;1.77;;;;;;;;;;5032229;28;20978;-76
2022/07/10 10:56:43;;;;;;;2.47;2.20;;;;;;;;;;5034396;28;20488;-75
2022/07/10 10:59:10;;;;;;;3.07;2.03;;;;;;;;;;5046746;28;20529;-75
2022/07/10 11:01:39;;;;;;;2.77;2.50;;;;;;;;;;5036718;28;20534;-76
2022/07/10 11:04:23;;;;;;;2.60;2.40;;;;;;;;;;5031686;28;21048;-76
2022/07/10 11:06:52;;;;;;;2.33;2.13;;;;;;;;;;5032258;28;20480;-76
2022/07/10 11:09:23;;;;;;;3.80;1.73;;;;;;;;;;5041556;28;20609;-78
2022/07/10 11:12:00;;;;;;;2.00;1.60;;;;;;;;;;5051873;28;20488;-76
2022/07/10 11:14:28;;;;;;;2.23;2.03;;;;;;;;;;5051300;28;20500;-77
2022/07/10 11:16:55;;;;;;;4.73;1.80;;;;;;;;;;5051633;28;20811;-77
2022/07/10 11:19:23;;;;;;;1.63;1.50;;;;;;;;;;5051996;28;20499;-77
2022/07/10 11:21:53;;;;;;;2.10;1.60;;;;;;;;;;5052026;28;20493;-77
2022/07/10 11:24:33;;;;;;;2.80;1.80;;;;;;;;;;5051072;28;20445;-76
2022/07/10 11:27:05;;;;;;;2.10;1.60;;;;;;;;;;5051713;28;20473;-76
2022/07/10 11:29:37;;;;;;;1.70;1.53;;;;;;;;;;5050967;28;20511;-76
2022/07/10 11:32:06;;;;;;;2.10;1.90;;;;;;;;;;5051375;28;20552;-76
2022/07/10 11:34:36;;;;;;;1.57;1.47;;;;;;;;;;5050870;28;20860;-76
2022/07/10 11:37:03;;;;;;;2.30;1.50;;;;;;;;;;5051276;28;20548;-78
2022/07/10 11:39:30;;;;;;;1.90;1.50;;;;;;;;;;5051322;28;20959;-76
2022/07/10 11:41:57;;;;;;;2.43;1.60;;;;;;;;;;5052028;28;20457;-77
2022/07/10 11:44:27;;;;;;;4.07;1.50;;;;;;;;;;5050789;28;20445;-76
2022/07/10 11:46:56;;;;;;;2.93;1.63;;;;;;;;;;5048268;28;20481;-75
2022/07/10 11:49:23;;;;;;;1.50;1.40;;;;;;;;;;5050903;28;20448;-76
2022/07/10 11:51:50;;;;;;;5.10;1.77;;;;;;;;;;5050520;28;21072;-74
2022/07/10 11:54:18;;;;;;;3.70;1.67;;;;;;;;;;5036147;28;20474;-76
2022/07/10 11:56:48;;;;;;;1.90;1.70;;;;;;;;;;5047597;28;20449;-76
2022/07/10 11:59:15;;;;;;;2.17;1.77;;;;;;;;;;5050721;28;20549;-75
2022/07/10 12:01:45;;;;;;;1.33;1.23;;;;;;;;;;5041105;28;20556;-76
2022/07/10 12:04:12;;;;;;;2.80;1.10;;;;;;;;;;5030527;28;20504;-76
2022/07/10 12:06:41;;;;;;;1.30;1.20;;;;;;;;;;5030794;28;20445;-77
2022/07/10 12:09:09;;;;;;;2.90;1.70;;;;;;;;;;5037649;28;20863;-76
2022/07/10 12:11:36;;;;;;;2.10;1.40;;;;;;;;;;5050461;28;20445;-75
2022/07/10 12:14:14;;;;;;;4.30;1.40;;;;;;;;;;5050334;28;20481;-76
2022/07/10 12:16:42;;;;;;;1.10;1.03;;;;;;;;;;5050994;28;20499;-78
2022/07/10 12:19:12;;;;;;;2.63;1.40;;;;;;;;;;5050595;28;20532;-75
2022/07/10 12:21:40;;;;;;;1.30;1.20;;;;;;;;;;5046747;28;20993;-78
2022/07/10 12:24:08;;;;;;;2.13;1.50;;;;;;;;;;5050311;28;20489;-76
2022/07/10 12:26:35;;;;;;;3.70;1.40;;;;;;;;;;5041634;28;20782;-76
2022/07/10 12:29:03;;;;;;;2.67;1.50;;;;;;;;;;5030695;28;20446;-75
2022/07/10 12:31:31;;;;;;;3.20;1.17;;;;;;;;;;5029974;28;20496;-75
2022/07/10 12:34:01;;;;;;;1.10;1.10;;;;;;;;;;5030119;28;20484;-77
2022/07/10 12:36:42;;;;;;;1.23;0.70;;;;;;;;;;5045699;28;20457;-74
2022/07/10 12:39:09;;;;;;;1.13;1.10;;;;;;;;;;5042936;28;20450;-75
2022/07/10 12:41:36;;;;;;;1.60;1.07;;;;;;;;;;5047373;28;20451;-75
2022/07/10 12:44:03;;;;;;;1.40;1.17;;;;;;;;;;5044605;28;20864;-75
2022/07/10 12:46:30;;;;;;;3.43;1.10;;;;;;;;;;5041537;28;20497;-76
2022/07/10 12:49:08;;;;;;;1.17;1.07;;;;;;;;;;5042440;28;20957;-76
2022/07/10 12:51:44;;;;;;;2.63;1.23;;;;;;;;;;5050867;28;20539;-77
2022/07/10 12:54:11;;;;;;;0.83;0.83;;;;;;;;;;5036194;28;20473;-74
2022/07/10 12:56:38;;;;;;;1.90;1.10;;;;;;;;;;5030050;28;20446;-77
2022/07/10 12:59:13;;;;;;;1.20;1.10;;;;;;;;;;5041145;28;20484;-76
2022/07/10 13:01:41;;;;;;;2.20;1.40;;;;;;;;;;5049524;28;20575;-77
2022/07/10 13:04:09;;;;;;;1.63;1.03;;;;;;;;;;5036274;28;20899;-76
2022/07/10 13:06:39;;;;;;;1.20;1.10;;;;;;;;;;5037727;28;20453;-76
2022/07/10 13:09:19;;;;;;;3.00;0.97;;;;;;;;;;5042995;28;20452;-76
2022/07/10 13:11:46;;;;;;;1.63;0.93;;;;;;;;;;5039966;28;20458;-77
2022/07/10 13:14:13;;;;;;;1.20;1.10;;;;;;;;;;5039620;28;20510;-76
2022/07/10 13:16:40;;;;;;;2.33;0.90;;;;;;;;;;5048057;28;20453;-75
2022/07/10 13:19:07;;;;;;;1.40;1.07;;;;;;;;;;5049789;28;20442;-77
2022/07/10 13:21:35;;;;;;;1.00;1.00;;;;;;;;;;5041129;28;20438;-74
2022/07/10 13:24:03;;;;;;;2.23;1.30;;;;;;;;;;5029215;28;20541;-75
2022/07/10 13:26:30;;;;;;;1.27;0.90;;;;;;;;;;5030072;28;20460;-76
2022/07/10 13:28:59;;;;;;;0.93;0.93;;;;;;;;;;5030139;28;21064;-77
2022/07/10 13:31:26;;;;;;;2.20;1.10;;;;;;;;;;5029854;28;20446;-78
2022/07/10 13:33:53;;;;;;;2.20;1.10;;;;;;;;;;5035212;28;20477;-76
2022/07/10 13:36:20;;;;;;;3.77;1.20;;;;;;;;;;5047303;28;20449;-79
2022/07/10 13:38:49;;;;;;;1.57;1.00;;;;;;;;;;5055872;28;20462;-76
2022/07/10 13:41:17;;;;;;;0.80;0.80;;;;;;;;;;5037072;28;20443;-77
2022/07/10 13:43:44;;;;;;;1.23;1.10;;;;;;;;;;5030706;28;20465;-76
2022/07/10 13:46:12;;;;;;;2.50;1.10;;;;;;;;;;5030768;28;20446;-75
2022/07/10 13:48:39;;;;;;;1.63;1.10;;;;;;;;;;5031135;28;20500;-77
2022/07/10 13:51:06;;;;;;;1.63;0.87;;;;;;;;;;5031032;28;20504;-75
2022/07/10 13:53:33;;;;;;;1.37;0.90;;;;;;;;;;5034308;28;20478;-75
2022/07/10 13:56:00;;;;;;;1.03;0.90;;;;;;;;;;5034515;28;20469;-75
2022/07/10 13:58:28;;;;;;;3.10;1.30;;;;;;;;;;5036585;28;20450;-75
2022/07/10 14:00:58;;;;;;;1.97;1.03;;;;;;;;;;5036640;28;20930;-75
2022/07/10 14:03:25;;;;;;;4.03;1.00;;;;;;;;;;5034051;28;20990;-75
2022/07/10 14:05:52;;;;;;;2.47;1.10;;;;;;;;;;5034216;28;20457;-75
2022/07/10 14:08:19;;;;;;;1.20;1.10;;;;;;;;;;5033823;28;21029;-77
2022/07/10 14:10:46;;;;;;;1.10;1.00;;;;;;;;;;5034327;28;20492;-76
2022/07/10 14:13:13;;;;;;;1.67;1.07;;;;;;;;;;5034142;28;21055;-76
2022/07/10 14:15:44;;;;;;;1.73;1.23;;;;;;;;;;5033906;28;20447;-75
2022/07/10 14:18:11;;;;;;;1.30;1.30;;;;;;;;;;5033969;28;20505;-76
2022/07/10 14:23:25;;;;;;;1.87;1.20;;;;;;;;;;5032630;28;20445;-76
2022/07/10 14:25:54;;;;;;;2.20;1.00;;;;;;;;;;5034551;28;20532;-77
2022/07/10 14:28:22;;;;;;;2.03;1.10;;;;;;;;;;5034402;28;20524;-76
2022/07/10 14:30:51;;;;;;;1.50;1.10;;;;;;;;;;5034517;28;20446;-76
2022/07/10 14:33:18;;;;;;;1.63;1.10;;;;;;;;;;5033327;28;20539;-76
2022/07/10 14:35:45;;;;;;;1.27;0.70;;;;;;;;;;5033967;28;20438;-76
2022/07/10 14:38:12;;;;;;;2.20;0.90;;;;;;;;;;5033466;28;20443;-76
2022/07/10 14:40:39;;;;;;;1.10;0.97;;;;;;;;;;5033751;28;20953;-76
2022/07/10 14:43:06;;;;;;;1.80;1.10;;;;;;;;;;5033237;28;20482;-75
2022/07/10 14:45:33;;;;;;;2.93;1.30;;;;;;;;;;5032902;28;20454;-76
2022/07/10 14:48:02;;;;;;;3.43;1.03;;;;;;;;;;5033527;28;20458;-76
2022/07/10 14:50:29;;;;;;;2.57;0.90;;;;;;;;;;5033720;28;20442;-77
2022/07/10 14:52:56;;;;;;;1.30;1.07;;;;;;;;;;5032933;28;20462;-76
2022/07/10 14:55:23;;;;;;;1.23;0.90;;;;;;;;;;5052857;28;20485;-75